createdAt,value
2023-01-19T00:04:21.888Z,26.50
2023-01-19T00:09:24.875Z,27.80
2023-01-19T00:14:27.806Z,19.10
2023-01-19T00:19:30.703Z,21.80
2023-01-19T00:24:33.917Z,16.70
2023-01-19T00:29:36.930Z,11.80
2023-01-19T00:34:43.144Z,23.20
2023-01-19T00:39:46.006Z,21.50
2023-01-19T00:44:48.908Z,22.80
2023-01-19T00:49:51.813Z,15.40
2023-01-19T00:54:54.616Z,10.90
2023-01-19T00:59:57.519Z,19.80
2023-01-19T01:05:03.440Z,14.10
2023-01-19T01:10:11.757Z,19.20
2023-01-19T01:15:16.148Z,17.50
2023-01-19T01:20:23.371Z,16.90
2023-01-19T01:25:28.615Z,18.80
2023-01-19T01:30:31.534Z,16.80
2023-01-19T01:35:34.541Z,16.00
2023-01-19T01:40:40.960Z,19.30
2023-01-19T01:45:44.131Z,17.10
2023-01-19T01:51:12.750Z,15.70
2023-01-19T01:56:20.059Z,20.40
2023-01-19T02:01:41.645Z,20.40
2023-01-19T02:07:03.748Z,18.60
2023-01-19T02:12:26.107Z,20.70
2023-01-19T02:17:29.113Z,18.40
2023-01-19T02:22:38.774Z,19.90
2023-01-19T02:27:42.808Z,19.60
2023-01-19T02:32:46.023Z,19.80
2023-01-19T02:37:49.208Z,18.40
2023-01-19T02:42:56.952Z,19.30
2023-01-19T02:47:59.954Z,21.10
2023-01-19T02:53:25.387Z,21.90
2023-01-19T02:58:48.158Z,14.60
2023-01-19T03:04:00.794Z,16.20
2023-01-19T03:09:15.677Z,21.10
2023-01-19T03:14:25.893Z,19.40
2023-01-19T03:19:40.598Z,17.60
2023-01-19T03:24:46.435Z,17.50
2023-01-19T03:29:54.130Z,18.90
2023-01-19T03:35:01.546Z,20.20
2023-01-19T03:40:05.803Z,21.60
2023-01-19T03:45:10.761Z,19.40
2023-01-19T03:50:24.304Z,20.00
2023-01-19T03:55:27.379Z,19.30
2023-01-19T04:00:31.112Z,18.50
2023-01-19T04:05:34.220Z,19.10
2023-01-19T04:10:37.644Z,21.10
2023-01-19T04:15:40.576Z,22.50
2023-01-19T04:20:43.432Z,23.40
2023-01-19T04:25:46.440Z,21.10
2023-01-19T04:30:55.157Z,22.00
2023-01-19T04:35:58.495Z,21.70
2023-01-19T04:41:01.404Z,25.30
2023-01-19T04:46:04.423Z,19.50
2023-01-19T04:51:07.518Z,21.50
2023-01-19T04:56:11.644Z,22.00
2023-01-19T05:01:14.770Z,22.30
2023-01-19T05:06:17.873Z,21.60
2023-01-19T05:11:21.180Z,22.50
2023-01-19T05:16:24.464Z,21.20
2023-01-19T05:21:28.937Z,20.40
2023-01-19T05:26:31.839Z,18.80
2023-01-19T05:31:34.933Z,14.60
2023-01-19T05:36:38.162Z,15.00
2023-01-19T05:41:42.196Z,15.40
2023-01-19T05:46:45.094Z,11.80
2023-01-19T05:51:48.104Z,14.60
2023-01-19T05:56:51.003Z,15.60
2023-01-19T06:01:54.572Z,12.20
2023-01-19T06:06:57.726Z,13.00
2023-01-19T06:12:00.635Z,10.10
2023-01-19T06:17:04.051Z,18.90
2023-01-19T06:22:06.952Z,14.40
2023-01-19T06:27:09.859Z,13.10
2023-01-19T06:32:12.803Z,17.90
2023-01-19T06:37:16.894Z,13.50
2023-01-19T06:42:19.803Z,16.20
2023-01-19T06:47:22.705Z,14.80
2023-01-19T06:52:25.924Z,13.00
2023-01-19T06:57:28.821Z,14.00
2023-01-19T07:02:31.908Z,13.20
2023-01-19T07:07:36.522Z,15.10
2023-01-19T07:12:39.786Z,11.70
2023-01-19T07:17:43.730Z,16.90
2023-01-19T07:22:46.822Z,15.80
2023-01-19T07:27:49.677Z,14.00
2023-01-19T07:32:56.215Z,16.20
2023-01-19T07:37:59.526Z,15.50
2023-01-19T07:43:03.335Z,8.80
2023-01-19T07:48:06.963Z,15.10
2023-01-19T07:53:12.034Z,12.20
2023-01-19T07:58:15.157Z,15.70
2023-01-19T08:03:18.968Z,8.00
2023-01-19T08:08:21.867Z,12.40
2023-01-19T08:13:25.080Z,15.50
2023-01-19T08:18:28.090Z,16.50
2023-01-19T08:23:31.426Z,16.10
2023-01-19T08:28:34.410Z,19.70
2023-01-19T08:33:37.308Z,14.60
2023-01-19T08:38:43.695Z,22.60
2023-01-19T08:43:46.709Z,16.30
2023-01-19T08:48:50.577Z,25.00
2023-01-19T08:53:53.532Z,18.20
2023-01-19T08:59:08.254Z,17.10
2023-01-19T09:04:12.469Z,18.40
2023-01-19T09:09:15.458Z,21.20
2023-01-19T09:14:18.363Z,23.60
2023-01-19T09:19:21.381Z,14.10
2023-01-19T09:24:24.375Z,22.50
2023-01-19T09:29:27.384Z,23.70
2023-01-19T09:34:31.620Z,19.40
2023-01-19T09:39:34.736Z,20.10
2023-01-19T09:44:37.942Z,23.90
2023-01-19T09:49:51.489Z,18.40
2023-01-19T09:54:57.059Z,23.50
2023-01-19T10:00:00.164Z,20.80
2023-01-19T10:05:13.515Z,21.50
2023-01-19T10:10:23.893Z,23.40
2023-01-19T10:15:32.847Z,21.90
2023-01-19T10:20:41.637Z,23.20
2023-01-19T10:25:45.443Z,20.30
2023-01-19T10:30:49.095Z,19.10
2023-01-19T10:35:52.043Z,16.70
2023-01-19T10:41:05.247Z,19.60
2023-01-19T10:46:20.232Z,17.10
2023-01-19T10:51:23.661Z,14.40
2023-01-19T10:56:38.103Z,14.30
2023-01-19T11:01:41.139Z,16.30
2023-01-19T11:06:44.275Z,12.50
2023-01-19T11:11:52.593Z,13.70
2023-01-19T11:16:58.267Z,13.20
2023-01-19T11:22:22.954Z,15.30
2023-01-19T11:27:27.222Z,15.00
2023-01-19T11:32:30.339Z,14.70
2023-01-19T11:37:35.346Z,16.30
2023-01-19T11:42:38.803Z,19.00
2023-01-19T11:47:45.097Z,12.20
2023-01-19T11:53:06.121Z,14.00
2023-01-19T11:58:16.188Z,12.10
2023-01-19T12:03:44.394Z,11.10
2023-01-19T12:08:49.852Z,15.80
2023-01-19T12:13:54.029Z,13.80
2023-01-19T12:19:04.669Z,9.80
2023-01-19T12:24:23.701Z,11.00
2023-01-19T12:29:32.091Z,12.20
2023-01-19T12:34:46.649Z,15.00
2023-01-19T12:39:50.557Z,16.10
2023-01-19T12:45:15.323Z,15.60
2023-01-19T12:50:23.496Z,11.80
2023-01-19T12:55:33.467Z,13.20
2023-01-19T13:00:43.072Z,16.70
2023-01-19T13:11:00.492Z,12.00
2023-01-19T13:16:19.152Z,14.10
2023-01-19T13:21:34.427Z,12.90
2023-01-19T13:26:40.947Z,15.10
2023-01-19T13:31:46.120Z,13.00
2023-01-19T13:36:54.920Z,14.70
2023-01-19T13:42:02.895Z,14.60
2023-01-19T13:47:12.615Z,15.80
2023-01-19T13:52:17.481Z,12.70
2023-01-19T13:57:24.549Z,16.20
2023-01-19T14:02:27.666Z,14.20
2023-01-19T14:07:30.882Z,16.40
2023-01-19T14:12:33.772Z,15.90
2023-01-19T14:17:36.934Z,17.90
2023-01-19T14:22:43.206Z,18.60
2023-01-19T14:27:46.572Z,13.50
2023-01-19T14:32:49.580Z,10.80
2023-01-19T14:37:52.789Z,13.20
2023-01-19T14:43:00.299Z,9.60
2023-01-19T14:48:06.893Z,13.30
2023-01-19T14:53:25.817Z,19.10
2023-01-19T14:58:32.345Z,15.00
2023-01-19T15:03:43.982Z,15.30
2023-01-19T15:08:50.345Z,15.50
2023-01-19T15:13:54.599Z,11.30
2023-01-19T15:18:57.690Z,19.50
2023-01-19T15:24:01.229Z,12.80
2023-01-19T15:29:17.029Z,16.00
2023-01-19T15:34:19.931Z,13.90
2023-01-19T15:39:23.349Z,15.20
2023-01-19T15:44:26.257Z,12.60
2023-01-19T15:49:31.121Z,14.70
2023-01-19T15:54:34.004Z,13.60
2023-01-19T15:59:37.315Z,17.10
2023-01-19T16:04:40.221Z,17.30
2023-01-19T16:09:43.120Z,18.40
2023-01-19T16:14:46.027Z,17.70
2023-01-19T16:19:49.035Z,16.50
2023-01-19T16:24:53.277Z,14.20
2023-01-19T16:29:57.313Z,15.20
2023-01-19T16:35:00.601Z,17.30
2023-01-19T16:40:04.421Z,14.60
2023-01-19T16:45:08.217Z,17.70
2023-01-19T16:50:12.053Z,14.00
2023-01-19T16:55:15.208Z,10.40
2023-01-19T17:00:19.144Z,11.80
2023-01-19T17:05:22.652Z,14.60
2023-01-19T17:10:25.555Z,13.50
2023-01-19T17:15:28.464Z,14.90
2023-01-19T17:20:34.126Z,13.80
2023-01-19T17:25:37.038Z,15.10
2023-01-19T17:30:39.901Z,15.70
2023-01-19T17:35:43.228Z,12.10
2023-01-19T17:40:46.765Z,17.70
2023-01-19T17:45:49.781Z,9.90
2023-01-19T17:50:54.415Z,13.80
2023-01-19T17:56:07.230Z,9.80
2023-01-19T18:01:16.391Z,12.20
2023-01-19T18:06:20.157Z,13.60
2023-01-19T18:11:23.134Z,14.60
2023-01-19T18:16:28.905Z,10.60
2023-01-19T18:21:31.813Z,10.80
2023-01-19T18:26:35.417Z,13.20
2023-01-19T18:31:38.387Z,13.20
2023-01-19T18:36:41.443Z,13.10
2023-01-19T18:41:44.552Z,12.70
2023-01-19T18:46:47.453Z,16.00
2023-01-19T18:51:50.355Z,13.10
2023-01-19T18:56:53.262Z,9.70
2023-01-19T19:01:56.306Z,17.00
2023-01-19T19:06:59.433Z,15.60
2023-01-19T19:12:02.690Z,16.20
2023-01-19T19:17:05.810Z,19.20
2023-01-19T19:22:08.806Z,17.20
2023-01-19T19:27:14.492Z,16.10
2023-01-19T19:32:20.612Z,18.90
2023-01-19T19:37:24.059Z,13.70
2023-01-19T19:42:30.265Z,13.90
2023-01-19T19:47:34.042Z,13.50
2023-01-19T19:52:41.444Z,13.80
2023-01-19T19:57:44.913Z,13.60
2023-01-19T20:02:50.853Z,16.60
2023-01-19T20:07:53.927Z,17.00
2023-01-19T20:12:56.797Z,14.60
2023-01-19T20:17:59.695Z,16.90
2023-01-19T20:23:02.604Z,15.60
2023-01-19T20:28:05.503Z,14.40
2023-01-19T20:33:08.411Z,12.00
2023-01-19T20:38:11.313Z,12.20
2023-01-19T20:43:14.216Z,10.80
2023-01-19T20:48:17.121Z,12.60
2023-01-19T20:53:20.332Z,13.40
2023-01-19T20:58:23.359Z,15.10
2023-01-19T21:03:26.344Z,15.20
2023-01-19T21:08:29.252Z,7.60
2023-01-19T21:13:32.571Z,13.50
2023-01-19T21:18:35.580Z,12.60
2023-01-19T21:23:38.575Z,9.70
2023-01-19T21:28:42.105Z,11.40
2023-01-19T21:33:45.412Z,14.90
2023-01-19T21:38:48.975Z,13.70
2023-01-19T21:43:52.051Z,13.10
2023-01-19T21:49:02.846Z,12.70
2023-01-19T21:54:06.851Z,9.10
2023-01-19T21:59:15.150Z,10.60
2023-01-19T22:04:18.195Z,11.00
2023-01-19T22:09:21.198Z,13.00
2023-01-19T22:14:24.104Z,14.80
2023-01-19T22:19:27.317Z,13.70
2023-01-19T22:24:30.217Z,12.60
2023-01-19T22:29:33.122Z,12.10
2023-01-19T22:34:36.132Z,12.70
2023-01-19T22:39:39.083Z,10.40
2023-01-19T22:44:42.243Z,12.40
2023-01-19T22:49:45.157Z,11.50
2023-01-19T22:54:48.052Z,11.90
2023-01-19T22:59:51.186Z,10.90
2023-01-19T23:04:54.170Z,11.90
2023-01-19T23:09:57.081Z,13.60
2023-01-19T23:14:59.981Z,12.30
2023-01-19T23:20:04.958Z,14.10
2023-01-19T23:25:08.883Z,14.10
2023-01-19T23:30:12.538Z,14.70
2023-01-19T23:35:16.292Z,16.90
2023-01-19T23:40:20.031Z,15.30
2023-01-19T23:45:22.876Z,15.10
2023-01-19T23:50:25.838Z,17.40
2023-01-19T23:55:28.827Z,12.80
